Terminal Aerodrome Forecast
Issued by NWS Charleston, WV

Current Version | Previous Version | Graphics & Text | Print | Product List | Glossary On
Versions: 1 2 3 4 5 6 7 8 9 10 11 12 13 14 15 16 17 18 19 20 21 22 23 24 25 26 27 28 29 30 31
000
FTUS41 KRLX 251500 AAA
TAFBKW
TAF AMD
KBKW 251505Z 2515/2612 13010KT 6SM SHRA OVC025
     FM252100 15006KT 4SM SHRA BR VCTS OVC015CB
     FM260300 14005KT 3SM SHRA BR OVC008=

USA.gov is the U.S. government's official web portal to all federal, state and local government web resources and services.